createdAt,value
2023-03-22T00:01:20.396Z,10.80
2023-03-22T00:03:48.751Z,10.80
2023-03-22T00:06:16.729Z,10.80
2023-03-22T00:08:44.359Z,10.70
2023-03-22T00:11:13.015Z,10.70
2023-03-22T00:13:45.889Z,10.70
2023-03-22T00:16:14.204Z,10.70
2023-03-22T00:18:41.304Z,11.80
2023-03-22T00:21:18.673Z,10.60
2023-03-22T00:23:45.708Z,10.60
2023-03-22T00:26:13.963Z,12.30
2023-03-22T00:28:41.642Z,10.60
2023-03-22T00:33:36.853Z,10.60
2023-03-22T00:36:09.562Z,10.60
2023-03-22T00:38:43.682Z,10.60
2023-03-22T00:41:16.866Z,11.20
2023-03-22T00:43:45.619Z,10.50
2023-03-22T00:46:13.950Z,11.80
2023-03-22T00:51:09.846Z,10.50
2023-03-22T00:53:41.106Z,11.10
2023-03-22T00:56:09.966Z,13.00
2023-03-22T00:58:48.009Z,10.50
2023-03-22T01:01:15.425Z,11.80
2023-03-22T01:03:43.625Z,10.50
2023-03-22T01:11:09.920Z,10.60
2023-03-22T01:13:38.232Z,10.50
2023-03-22T01:16:06.816Z,10.60
2023-03-22T01:21:02.534Z,10.50
2023-03-22T01:23:29.891Z,11.60
2023-03-22T01:28:26.509Z,10.50
2023-03-22T01:35:49.988Z,10.50
2023-03-22T01:38:17.313Z,11.80
2023-03-22T01:45:50.397Z,10.50
2023-03-22T01:48:24.743Z,10.50
2023-03-22T01:51:13.301Z,10.60
2023-03-22T01:54:01.120Z,10.50
2023-03-22T01:56:32.725Z,10.50
2023-03-22T02:04:20.179Z,10.60
2023-03-22T02:06:48.288Z,10.50
2023-03-22T02:11:59.496Z,10.60
2023-03-22T02:14:49.895Z,10.60
2023-03-22T02:18:11.500Z,10.60
2023-03-22T02:21:12.627Z,10.60
2023-03-22T02:24:07.010Z,10.60
2023-03-22T02:27:06.646Z,12.60
2023-03-22T02:29:48.692Z,10.60
2023-03-22T02:32:21.693Z,10.60
2023-03-22T02:35:19.845Z,12.30
2023-03-22T02:38:14.911Z,10.60
2023-03-22T02:41:13.416Z,10.80
2023-03-22T02:43:54.147Z,10.60
2023-03-22T02:46:59.385Z,11.00
2023-03-22T02:49:45.994Z,10.60
2023-03-22T02:52:24.010Z,10.60
2023-03-22T02:55:10.022Z,10.60
2023-03-22T02:57:55.276Z,10.60
2023-03-22T03:00:23.774Z,10.60
2023-03-22T03:02:58.105Z,10.60
2023-03-22T03:05:27.039Z,10.50
2023-03-22T03:07:59.466Z,10.50
2023-03-22T03:12:55.370Z,10.50
2023-03-22T03:15:23.781Z,10.50
2023-03-22T03:18:11.374Z,10.50
2023-03-22T03:20:56.354Z,10.40
2023-03-22T03:23:33.357Z,10.40
2023-03-22T03:26:37.710Z,10.40
2023-03-22T03:29:08.388Z,10.30
2023-03-22T03:32:07.916Z,10.30
2023-03-22T03:34:49.469Z,10.30
2023-03-22T03:37:21.996Z,10.30
2023-03-22T03:39:56.961Z,10.30
2023-03-22T03:42:27.414Z,10.20
2023-03-22T03:44:55.589Z,10.20
2023-03-22T03:47:24.374Z,10.20
2023-03-22T03:49:51.473Z,10.50
2023-03-22T03:52:19.103Z,10.20
2023-03-22T03:57:18.125Z,10.10
2023-03-22T03:59:45.338Z,11.50
2023-03-22T04:02:24.035Z,12.10
2023-03-22T04:04:53.021Z,10.10
2023-03-22T04:07:20.793Z,10.20
2023-03-22T04:09:47.886Z,12.40
2023-03-22T04:15:07.982Z,10.10
2023-03-22T04:17:35.015Z,10.10
2023-03-22T04:22:34.622Z,10.10
2023-03-22T04:25:02.315Z,10.00
2023-03-22T04:27:29.559Z,10.30
2023-03-22T04:32:50.461Z,10.10
2023-03-22T04:37:49.689Z,10.10
2023-03-22T04:40:20.767Z,10.10
2023-03-22T04:43:02.987Z,10.00
2023-03-22T04:51:04.239Z,10.10
2023-03-22T04:53:40.804Z,11.80
2023-03-22T04:56:14.007Z,10.40
2023-03-22T04:58:43.813Z,10.00
2023-03-22T05:01:12.893Z,10.00
2023-03-22T05:06:12.968Z,10.00
2023-03-22T05:08:48.670Z,10.00
2023-03-22T05:11:19.427Z,10.00
2023-03-22T05:13:57.937Z,10.00
2023-03-22T05:16:26.900Z,10.00
2023-03-22T05:21:28.335Z,10.00
2023-03-22T05:23:58.699Z,10.00
2023-03-22T05:26:26.889Z,10.00
2023-03-22T05:28:55.802Z,9.90
2023-03-22T05:36:38.461Z,9.80
2023-03-22T05:41:52.652Z,9.90
2023-03-22T05:44:19.752Z,9.80
2023-03-22T05:47:06.989Z,9.80
2023-03-22T05:49:36.836Z,9.80
2023-03-22T05:59:53.952Z,9.90
2023-03-22T06:02:26.400Z,9.90
2023-03-22T06:04:53.321Z,9.90
2023-03-22T06:09:53.137Z,10.00
2023-03-22T06:12:27.169Z,10.00
2023-03-22T06:15:12.163Z,10.10
2023-03-22T06:17:48.731Z,10.10
2023-03-22T06:20:20.986Z,10.10
2023-03-22T06:22:53.802Z,10.10
2023-03-22T06:25:20.800Z,10.10
2023-03-22T06:27:49.042Z,10.20
2023-03-22T06:30:16.336Z,10.20
2023-03-22T06:33:05.266Z,10.20
2023-03-22T06:35:36.169Z,10.20
2023-03-22T06:40:32.568Z,10.20
2023-03-22T06:45:33.594Z,10.30
2023-03-22T06:48:02.402Z,10.30
2023-03-22T06:50:44.830Z,10.30
2023-03-22T06:53:14.965Z,10.30
2023-03-22T06:55:41.987Z,10.40
2023-03-22T07:03:11.430Z,10.50
2023-03-22T07:10:51.766Z,10.60
2023-03-22T07:15:58.795Z,10.70
2023-03-22T07:18:34.763Z,10.60
2023-03-22T07:23:29.789Z,10.70
2023-03-22T07:26:02.867Z,10.70
2023-03-22T07:28:33.754Z,10.70
2023-03-22T07:31:11.679Z,10.70
2023-03-22T07:33:57.114Z,10.80
2023-03-22T07:36:27.026Z,10.80
2023-03-22T07:38:55.159Z,10.80
2023-03-22T07:41:30.638Z,10.90
2023-03-22T07:44:18.329Z,10.90
2023-03-22T07:47:01.650Z,11.00
2023-03-22T07:57:06.916Z,11.10
2023-03-22T08:02:11.117Z,11.30
2023-03-22T08:04:44.062Z,11.40
2023-03-22T08:07:18.565Z,11.40
2023-03-22T08:14:43.676Z,11.80
2023-03-22T08:17:18.698Z,11.90
2023-03-22T08:19:46.403Z,12.10
2023-03-22T08:25:05.384Z,12.30
2023-03-22T08:30:05.911Z,12.40
2023-03-22T08:32:34.453Z,12.40
2023-03-22T08:35:02.045Z,12.50
2023-03-22T08:37:28.938Z,12.50
2023-03-22T08:39:56.294Z,12.50
2023-03-22T08:42:31.804Z,12.50
2023-03-22T08:44:58.665Z,12.70
2023-03-22T08:49:59.647Z,12.60
2023-03-22T08:52:46.604Z,12.60
2023-03-22T08:55:23.283Z,12.70
2023-03-22T08:58:10.211Z,12.70
2023-03-22T09:00:57.436Z,12.80
2023-03-22T09:03:30.532Z,12.80
2023-03-22T09:05:58.747Z,12.80
2023-03-22T09:08:29.332Z,12.80
2023-03-22T09:11:04.337Z,12.70
2023-03-22T09:13:31.498Z,12.70
2023-03-22T09:16:01.312Z,12.80
2023-03-22T09:18:31.569Z,12.80
2023-03-22T09:21:01.815Z,12.70
2023-03-22T09:28:52.541Z,12.70
2023-03-22T09:36:22.228Z,12.60
2023-03-22T09:38:50.118Z,12.70
2023-03-22T09:41:48.577Z,12.60
2023-03-22T09:44:22.804Z,12.70
2023-03-22T09:46:55.070Z,12.70
2023-03-22T09:49:29.141Z,12.80
2023-03-22T09:51:56.170Z,12.90
2023-03-22T09:54:38.871Z,12.90
2023-03-22T09:57:20.963Z,13.00
2023-03-22T10:00:00.511Z,13.00
2023-03-22T10:02:45.491Z,13.00
2023-03-22T10:05:29.260Z,13.10
2023-03-22T10:08:14.490Z,13.10
2023-03-22T10:10:41.997Z,13.20
2023-03-22T10:13:20.661Z,13.30
2023-03-22T10:15:52.282Z,13.30
2023-03-22T10:18:30.254Z,13.40
2023-03-22T10:21:07.164Z,13.50
2023-03-22T10:23:53.960Z,13.50
2023-03-22T10:26:24.924Z,13.60
2023-03-22T10:29:04.059Z,13.50
2023-03-22T10:31:32.107Z,13.60
2023-03-22T10:34:14.657Z,13.60
2023-03-22T10:36:43.619Z,13.60
2023-03-22T10:39:19.269Z,13.70
2023-03-22T10:41:47.459Z,13.70
2023-03-22T10:44:19.242Z,13.70
2023-03-22T10:46:48.779Z,13.70
2023-03-22T10:49:27.169Z,13.70
2023-03-22T10:51:58.362Z,13.70
2023-03-22T10:54:27.003Z,13.70
2023-03-22T10:56:54.008Z,13.70
2023-03-22T10:59:50.056Z,13.70
2023-03-22T11:02:26.908Z,13.70
2023-03-22T11:05:02.603Z,13.70
2023-03-22T11:07:33.918Z,13.80
2023-03-22T11:10:09.986Z,13.80
2023-03-22T11:12:40.951Z,13.80
2023-03-22T11:15:25.226Z,13.80
2023-03-22T11:17:54.891Z,13.80
2023-03-22T11:20:23.046Z,13.90
2023-03-22T11:22:51.170Z,13.90
2023-03-22T11:25:26.830Z,13.90
2023-03-22T11:27:57.249Z,13.90
2023-03-22T11:30:29.216Z,14.00
2023-03-22T11:33:08.701Z,14.00
2023-03-22T11:35:38.738Z,14.00
2023-03-22T11:38:05.712Z,14.00
2023-03-22T11:40:37.343Z,14.00
2023-03-22T11:43:21.554Z,14.00
2023-03-22T11:45:53.414Z,13.90
2023-03-22T11:48:27.361Z,13.90
2023-03-22T11:51:03.430Z,13.90
2023-03-22T11:53:35.450Z,13.90
2023-03-22T11:56:07.370Z,13.90
2023-03-22T11:58:44.705Z,13.90
2023-03-22T12:01:32.907Z,13.90
2023-03-22T12:04:01.911Z,13.80
2023-03-22T12:06:33.876Z,13.80
2023-03-22T12:09:22.175Z,13.90
2023-03-22T12:11:53.092Z,13.80
2023-03-22T12:14:28.359Z,13.80
2023-03-22T12:17:10.843Z,13.80
2023-03-22T12:19:58.980Z,13.80
2023-03-22T12:22:32.509Z,13.70
2023-03-22T12:25:01.843Z,13.70
2023-03-22T12:27:36.589Z,13.70
2023-03-22T12:30:11.398Z,13.60
2023-03-22T12:32:42.941Z,13.70
2023-03-22T12:35:21.400Z,13.60
2023-03-22T12:37:52.222Z,13.60
2023-03-22T12:40:49.941Z,13.60
2023-03-22T12:43:34.115Z,13.60
2023-03-22T12:46:03.939Z,13.60
2023-03-22T12:48:46.641Z,13.60
2023-03-22T12:51:15.025Z,13.70
2023-03-22T12:53:51.757Z,13.70
2023-03-22T12:56:25.709Z,13.80
2023-03-22T12:59:01.357Z,13.80
2023-03-22T13:01:48.638Z,13.70
2023-03-22T13:04:36.672Z,13.80
2023-03-22T13:07:37.774Z,13.80
2023-03-22T13:10:29.678Z,13.80
2023-03-22T13:13:37.746Z,13.80
2023-03-22T13:16:11.100Z,13.80
2023-03-22T13:18:38.337Z,13.80
2023-03-22T13:21:14.469Z,14.00
2023-03-22T13:24:15.379Z,13.90
2023-03-22T13:26:47.201Z,14.00
2023-03-22T13:29:24.543Z,14.10
2023-03-22T13:34:31.468Z,14.10
2023-03-22T13:36:59.451Z,14.00
2023-03-22T13:39:34.573Z,14.20
2023-03-22T13:42:38.092Z,14.30
2023-03-22T13:45:09.014Z,14.20
2023-03-22T13:47:37.452Z,14.20
2023-03-22T13:50:11.737Z,14.20
2023-03-22T13:52:53.409Z,14.10
2023-03-22T13:55:51.909Z,14.10
2023-03-22T13:58:54.090Z,14.10
2023-03-22T14:01:36.974Z,14.10
2023-03-22T14:04:12.347Z,14.10
2023-03-22T14:06:53.889Z,14.10
2023-03-22T14:09:34.743Z,14.10
2023-03-22T14:12:14.727Z,14.00
2023-03-22T14:14:46.986Z,14.00
2023-03-22T14:17:37.883Z,14.00
2023-03-22T14:20:15.353Z,14.00
